Time;durP1;ratioP1;P1;durP2;ratioP2;P2;SDS_P1;SDS_P2;PMS_P1;PMS_P2;Temp;Humidity;BMP_temperature;BMP_pressure;BME280_temperature;BME280_humidity;BME280_pressure;Samples;Min_cycle;Max_cycle;Signal;HPM_P1;HPM_P2
2021/10/16 00:00:40;;;;;;;12.25;3.22;;;9.40;99.90;;;;;;5073577;28;20166;-78
2021/10/16 00:03:06;;;;;;;7.32;3.25;;;9.20;99.90;;;;;;5072373;28;20166;-80
2021/10/16 00:05:31;;;;;;;8.45;3.42;;;9.40;99.90;;;;;;5073717;28;20174;-80
2021/10/16 00:07:57;;;;;;;10.07;3.10;;;9.40;99.90;;;;;;5073484;28;20204;-80
2021/10/16 00:10:23;;;;;;;16.17;3.30;;;9.50;99.90;;;;;;5073611;28;20263;-79
2021/10/16 00:12:49;;;;;;;8.40;3.45;;;9.40;99.90;;;;;;5073816;28;20163;-78
2021/10/16 00:15:15;;;;;;;7.10;2.78;;;9.40;99.90;;;;;;5073369;28;20178;-79
2021/10/16 00:17:41;;;;;;;7.68;2.78;;;9.20;99.90;;;;;;5073542;28;20261;-77
2021/10/16 00:20:10;;;;;;;14.90;2.83;;;9.10;99.90;;;;;;5073984;28;20197;-81
2021/10/16 00:22:36;;;;;;;20.40;2.67;;;9.00;99.90;;;;;;5072185;28;20171;-78
2021/10/16 00:25:02;;;;;;;6.38;2.90;;;8.90;99.90;;;;;;5072348;28;20274;-80
2021/10/16 00:27:28;;;;;;;6.90;3.28;;;9.10;99.90;;;;;;5073655;28;20186;-78
2021/10/16 00:29:53;;;;;;;8.88;3.42;;;9.00;99.90;;;;;;5073199;28;20210;-82
2021/10/16 00:32:19;;;;;;;10.80;3.92;;;9.00;99.90;;;;;;5073337;28;20169;-77
2021/10/16 00:34:45;;;;;;;10.50;3.55;;;8.90;99.90;;;;;;5073464;28;20177;-77
2021/10/16 00:37:10;;;;;;;5.95;2.63;;;8.90;99.90;;;;;;5073321;28;20629;-78
2021/10/16 00:39:36;;;;;;;11.55;4.20;;;8.70;99.90;;;;;;5073315;28;20189;-78
2021/10/16 00:42:03;;;;;;;7.32;2.53;;;8.80;99.90;;;;;;5073204;28;20212;-79
2021/10/16 00:44:29;;;;;;;10.07;3.45;;;8.90;99.90;;;;;;5073093;28;20219;-78
2021/10/16 00:46:56;;;;;;;11.88;2.97;;;8.90;99.90;;;;;;5072068;28;20632;-77
2021/10/16 00:49:24;;;;;;;7.68;2.67;;;8.80;99.90;;;;;;5072989;28;20210;-77
2021/10/16 00:51:50;;;;;;;13.20;3.75;;;8.90;99.90;;;;;;5072589;28;20631;-80
2021/10/16 00:54:20;;;;;;;6.40;2.85;;;8.90;99.90;;;;;;5073066;28;20178;-79
2021/10/16 00:56:48;;;;;;;8.77;3.22;;;9.00;99.90;;;;;;5071836;28;20171;-78
2021/10/16 00:59:14;;;;;;;13.50;3.33;;;9.10;99.90;;;;;;5073649;28;20166;-78
2021/10/16 01:01:40;;;;;;;8.32;2.80;;;8.90;99.90;;;;;;5072324;28;20649;-77
2021/10/16 01:04:06;;;;;;;6.15;2.83;;;8.70;99.90;;;;;;5072737;28;20172;-79
2021/10/16 01:06:34;;;;;;;8.45;2.85;;;8.60;99.90;;;;;;5073584;28;20192;-79
2021/10/16 01:09:01;;;;;;;7.68;2.67;;;8.70;99.90;;;;;;5073721;28;20244;-78
2021/10/16 01:11:44;;;;;;;8.00;1.92;;;8.60;99.90;;;;;;5074072;28;20235;-78
2021/10/16 01:14:11;;;;;;;10.93;2.72;;;8.60;99.90;;;;;;5072002;28;20184;-77
2021/10/16 01:16:42;;;;;;;5.60;2.53;;;8.60;99.90;;;;;;5073887;28;20162;-77
2021/10/16 01:19:16;;;;;;;10.50;3.33;;;8.50;99.90;;;;;;5074678;28;20170;-79
2021/10/16 01:21:50;;;;;;;14.50;3.40;;;8.40;99.90;;;;;;5075285;28;20166;-80
2021/10/16 01:24:19;;;;;;;10.73;2.72;;;8.30;99.90;;;;;;5075666;28;20162;-79
2021/10/16 01:26:50;;;;;;;8.43;2.53;;;8.20;99.90;;;;;;5074831;28;20166;-77
2021/10/16 01:29:25;;;;;;;7.43;2.97;;;8.30;99.90;;;;;;5074834;28;20312;-77
2021/10/16 01:31:52;;;;;;;6.40;2.55;;;8.30;99.90;;;;;;5075673;28;20166;-77
2021/10/16 01:34:18;;;;;;;4.85;2.95;;;8.50;99.90;;;;;;5075170;28;20675;-77
2021/10/16 01:36:45;;;;;;;4.22;2.40;;;8.40;99.90;;;;;;5072695;28;20170;-78
2021/10/16 01:39:12;;;;;;;6.70;2.33;;;8.40;99.90;;;;;;5072483;28;20236;-76
2021/10/16 01:41:38;;;;;;;5.25;3.22;;;8.40;99.90;;;;;;5072878;28;20300;-76
2021/10/16 01:44:05;;;;;;;4.97;2.92;;;8.40;99.90;;;;;;5072538;28;20261;-78
2021/10/16 01:46:32;;;;;;;5.40;2.72;;;8.50;99.90;;;;;;5072443;28;20237;-78
2021/10/16 01:48:57;;;;;;;3.83;2.13;;;8.30;99.90;;;;;;5071925;28;20190;-77
2021/10/16 01:51:23;;;;;;;9.73;3.45;;;8.40;99.90;;;;;;5072261;28;20174;-76
2021/10/16 01:53:48;;;;;;;4.22;2.90;;;8.60;99.90;;;;;;5072420;28;20227;-76
2021/10/16 01:56:14;;;;;;;8.05;2.72;;;8.60;99.90;;;;;;5072276;28;20174;-77
2021/10/16 01:58:40;;;;;;;8.38;2.47;;;8.50;99.90;;;;;;5071988;28;20186;-77
2021/10/16 02:01:05;;;;;;;8.60;2.95;;;8.40;99.90;;;;;;5072454;28;20175;-77
2021/10/16 02:03:31;;;;;;;7.78;2.80;;;8.40;99.90;;;;;;5071936;28;20209;-78
2021/10/16 02:05:56;;;;;;;3.40;2.45;;;8.40;99.90;;;;;;5072170;28;20167;-77
2021/10/16 02:08:22;;;;;;;7.88;2.53;;;8.50;99.90;;;;;;5072222;28;20186;-77
2021/10/16 02:10:48;;;;;;;5.88;2.53;;;8.40;99.90;;;;;;5071911;28;20218;-79
2021/10/16 02:13:13;;;;;;;4.18;2.38;;;8.20;99.90;;;;;;5070893;28;20174;-77
2021/10/16 02:15:39;;;;;;;10.98;2.90;;;8.20;99.90;;;;;;5072046;28;20496;-77
2021/10/16 02:18:05;;;;;;;10.73;2.60;;;8.20;99.90;;;;;;5070842;28;20182;-77
2021/10/16 02:20:30;;;;;;;6.20;2.63;;;8.30;99.90;;;;;;5075638;28;20162;-77
2021/10/16 02:22:56;;;;;;;5.93;2.60;;;8.30;99.90;;;;;;5075729;28;20493;-77
2021/10/16 02:25:22;;;;;;;6.13;3.00;;;8.20;99.90;;;;;;5075631;28;20525;-77
2021/10/16 02:27:48;;;;;;;4.43;2.75;;;8.30;99.90;;;;;;5075569;28;20553;-77
2021/10/16 02:30:13;;;;;;;5.22;2.47;;;8.20;99.90;;;;;;5074147;28;20225;-77
2021/10/16 02:32:39;;;;;;;5.28;2.50;;;8.20;99.90;;;;;;5075278;28;20633;-77
2021/10/16 02:35:06;;;;;;;5.68;2.40;;;8.10;99.90;;;;;;5075296;28;20616;-77
2021/10/16 02:37:31;;;;;;;12.85;2.10;;;8.00;99.90;;;;;;5075304;28;20542;-77
2021/10/16 02:39:57;;;;;;;7.82;2.97;;;8.10;99.90;;;;;;5075204;28;20175;-77
2021/10/16 02:42:23;;;;;;;17.63;3.10;;;8.20;99.90;;;;;;5075294;28;20159;-77
2021/10/16 02:44:49;;;;;;;6.80;3.00;;;8.40;99.90;;;;;;5075287;28;20520;-77
2021/10/16 02:47:15;;;;;;;5.32;2.78;;;8.40;99.90;;;;;;5074808;28;20225;-78
2021/10/16 02:49:41;;;;;;;8.00;2.83;;;8.30;99.90;;;;;;5075391;28;20549;-77
2021/10/16 02:52:07;;;;;;;9.68;2.75;;;8.20;99.90;;;;;;5075110;28;20159;-77
2021/10/16 02:54:32;;;;;;;12.65;3.25;;;8.10;99.90;;;;;;5075078;28;20196;-78
2021/10/16 02:56:58;;;;;;;13.75;3.08;;;8.20;99.90;;;;;;5074658;28;20250;-77
2021/10/16 02:59:24;;;;;;;10.48;4.13;;;7.90;99.90;;;;;;5075033;28;20162;-78
2021/10/16 03:01:50;;;;;;;16.15;3.70;;;7.80;99.90;;;;;;5074768;28;20202;-77
2021/10/16 03:04:16;;;;;;;9.38;3.05;;;7.90;99.90;;;;;;5073921;28;20615;-80
2021/10/16 03:06:41;;;;;;;6.25;2.92;;;7.90;99.90;;;;;;5076932;28;20166;-77
2021/10/16 03:09:07;;;;;;;5.07;3.08;;;8.20;99.90;;;;;;5077311;28;20208;-77
2021/10/16 03:11:32;;;;;;;7.07;2.80;;;8.50;99.90;;;;;;5076520;28;20301;-77
2021/10/16 03:14:01;;;;;;;4.72;2.88;;;8.60;99.90;;;;;;5076080;28;20166;-77
2021/10/16 03:16:28;;;;;;;15.68;3.00;;;8.40;99.90;;;;;;5076622;28;20166;-76
2021/10/16 03:18:54;;;;;;;16.65;2.67;;;8.40;99.90;;;;;;5075663;28;20182;-77
2021/10/16 03:21:22;;;;;;;17.67;3.28;;;8.50;99.90;;;;;;5074874;28;20169;-76
2021/10/16 03:23:48;;;;;;;9.07;2.85;;;8.20;99.90;;;;;;5074566;28;20163;-76
2021/10/16 03:26:14;;;;;;;6.68;2.88;;;8.20;99.90;;;;;;5074563;28;20162;-77
2021/10/16 03:28:39;;;;;;;5.60;2.78;;;8.20;99.90;;;;;;5074392;28;20218;-76
2021/10/16 03:31:05;;;;;;;6.43;2.78;;;8.20;99.90;;;;;;5073403;28;20251;-79
2021/10/16 03:33:31;;;;;;;10.02;3.15;;;8.10;99.90;;;;;;5074471;28;20179;-83
2021/10/16 03:35:56;;;;;;;6.22;3.08;;;8.20;99.90;;;;;;5074495;28;20256;-77
2021/10/16 03:38:22;;;;;;;7.28;3.38;;;8.40;99.90;;;;;;5074280;28;20261;-79
2021/10/16 03:40:48;;;;;;;11.80;3.70;;;8.70;99.90;;;;;;5074342;28;20227;-77
2021/10/16 03:43:14;;;;;;;11.75;3.78;;;8.80;99.90;;;;;;5074544;28;20162;-78
2021/10/16 03:45:39;;;;;;;13.40;3.60;;;8.80;99.90;;;;;;5074659;28;20190;-77
2021/10/16 03:48:05;;;;;;;8.23;2.67;;;8.70;99.90;;;;;;5074749;28;20186;-82
2021/10/16 03:50:32;;;;;;;9.82;2.90;;;8.70;99.90;;;;;;5078190;28;20540;-79
2021/10/16 03:52:58;;;;;;;10.35;3.13;;;8.50;99.90;;;;;;5081391;28;20167;-82
2021/10/16 03:55:24;;;;;;;13.77;3.50;;;8.40;99.90;;;;;;5081870;28;20167;-86
2021/10/16 03:57:51;;;;;;;6.00;2.72;;;8.40;99.90;;;;;;5082075;28;20179;-85
2021/10/16 04:00:19;;;;;;;5.55;2.80;;;8.30;99.90;;;;;;5083088;28;20223;-85
2021/10/16 04:02:48;;;;;;;6.88;2.63;;;8.40;99.90;;;;;;5082762;28;20163;-83
2021/10/16 04:05:14;;;;;;;7.25;3.88;;;8.70;99.90;;;;;;5081694;28;20177;-78
2021/10/16 04:07:40;;;;;;;18.92;3.08;;;8.70;99.90;;;;;;5081286;28;20202;-80
2021/10/16 04:10:07;;;;;;;8.35;3.03;;;8.70;99.90;;;;;;5079954;28;20271;-84
2021/10/16 04:12:33;;;;;;;6.05;2.63;;;8.70;99.90;;;;;;5078806;28;20170;-78
2021/10/16 04:14:59;;;;;;;8.43;2.72;;;8.50;99.90;;;;;;5078636;28;20257;-79
2021/10/16 04:17:25;;;;;;;7.95;3.03;;;8.50;99.90;;;;;;5079211;28;20217;-84
2021/10/16 04:19:51;;;;;;;20.08;3.78;;;8.70;99.90;;;;;;5078616;28;20617;-80
2021/10/16 04:22:16;;;;;;;6.88;3.67;;;8.70;99.90;;;;;;5075503;28;20614;-79
2021/10/16 04:24:42;;;;;;;17.15;3.65;;;8.60;99.90;;;;;;5075482;28;20178;-82
2021/10/16 04:27:08;;;;;;;7.07;3.03;;;8.50;99.90;;;;;;5074558;28;20189;-78
2021/10/16 04:29:33;;;;;;;7.82;3.42;;;8.70;99.90;;;;;;5073702;28;20214;-80
2021/10/16 04:31:59;;;;;;;20.65;3.78;;;8.80;99.90;;;;;;5073577;28;20166;-79
2021/10/16 04:34:25;;;;;;;10.70;3.30;;;8.90;99.90;;;;;;5073361;28;20169;-79
2021/10/16 04:36:50;;;;;;;8.40;2.97;;;8.90;99.90;;;;;;5073557;28;20166;-84
2021/10/16 04:39:16;;;;;;;8.93;2.88;;;8.90;99.90;;;;;;5073705;28;20173;-79
2021/10/16 04:41:42;;;;;;;13.23;3.58;;;8.70;99.90;;;;;;5072987;28;20520;-84
2021/10/16 04:44:07;;;;;;;10.75;2.97;;;8.70;99.90;;;;;;5073028;28;20198;-82
2021/10/16 04:46:34;;;;;;;8.40;3.33;;;8.80;99.90;;;;;;5073476;28;20220;-85
2021/10/16 04:49:00;;;;;;;13.38;3.83;;;9.10;99.90;;;;;;5073432;28;20186;-77
2021/10/16 04:51:26;;;;;;;7.97;3.03;;;9.00;99.90;;;;;;5071800;28;20194;-80
2021/10/16 04:53:52;;;;;;;8.77;3.40;;;8.90;99.90;;;;;;5074333;28;20169;-79
2021/10/16 04:56:17;;;;;;;7.30;2.97;;;8.90;99.90;;;;;;5073722;28;20223;-79
2021/10/16 04:58:43;;;;;;;12.80;2.90;;;8.90;99.90;;;;;;5073614;28;20186;-87
2021/10/16 05:01:08;;;;;;;7.75;3.58;;;8.80;99.90;;;;;;5073714;28;20249;-80
2021/10/16 05:03:34;;;;;;;14.05;3.25;;;8.70;99.90;;;;;;5073621;28;20158;-86
2021/10/16 05:05:59;;;;;;;4.88;2.60;;;8.80;99.90;;;;;;5073106;28;20170;-80
2021/10/16 05:08:27;;;;;;;13.57;3.10;;;8.80;99.90;;;;;;5072907;28;20193;-80
2021/10/16 05:10:53;;;;;;;10.68;3.53;;;9.00;99.90;;;;;;5071535;28;20206;-79
2021/10/16 05:13:18;;;;;;;5.97;3.45;;;9.20;99.90;;;;;;5073351;28;20253;-86
2021/10/16 05:15:44;;;;;;;8.85;3.00;;;8.90;99.90;;;;;;5071706;28;20649;-78
2021/10/16 05:18:09;;;;;;;5.90;2.80;;;8.70;99.90;;;;;;5072748;28;20722;-79
2021/10/16 05:20:35;;;;;;;8.02;3.25;;;8.60;99.90;;;;;;5072867;28;20279;-86
2021/10/16 05:23:01;;;;;;;7.97;2.85;;;8.60;99.90;;;;;;5072785;28;20158;-86
2021/10/16 05:25:27;;;;;;;11.75;3.25;;;8.50;99.90;;;;;;5072681;28;20623;-83
2021/10/16 05:27:52;;;;;;;16.02;3.30;;;8.60;99.90;;;;;;5072387;28;20307;-77
2021/10/16 05:30:18;;;;;;;3.42;2.53;;;8.60;99.90;;;;;;5072590;28;20249;-84
2021/10/16 05:32:44;;;;;;;6.40;3.15;;;8.40;99.90;;;;;;5072689;28;20642;-86
2021/10/16 05:35:10;;;;;;;8.27;3.03;;;8.20;99.90;;;;;;5072796;28;20519;-85
2021/10/16 05:37:35;;;;;;;6.28;2.70;;;8.20;99.90;;;;;;5072470;28;20273;-78
2021/10/16 05:40:01;;;;;;;6.85;2.83;;;8.40;99.90;;;;;;5072421;28;20201;-83
2021/10/16 05:42:27;;;;;;;9.80;3.45;;;8.60;99.90;;;;;;5073343;28;20217;-80
2021/10/16 05:44:53;;;;;;;7.72;3.28;;;8.40;99.90;;;;;;5073369;28;20250;-80
2021/10/16 05:47:18;;;;;;;21.02;3.70;;;8.40;99.90;;;;;;5072977;28;20198;-79
2021/10/16 05:49:44;;;;;;;7.13;2.95;;;8.20;99.90;;;;;;5073014;28;20210;-80
2021/10/16 05:52:09;;;;;;;7.22;3.13;;;8.20;99.90;;;;;;5072837;28;20638;-82
2021/10/16 05:54:35;;;;;;;6.18;3.20;;;8.30;99.90;;;;;;5075626;28;20172;-78
2021/10/16 05:57:01;;;;;;;5.55;2.97;;;8.40;99.90;;;;;;5076054;28;20162;-78
2021/10/16 05:59:26;;;;;;;8.18;2.85;;;8.50;99.90;;;;;;5076688;28;20634;-78
2021/10/16 06:01:52;;;;;;;11.32;3.42;;;8.40;99.90;;;;;;5076067;28;20236;-78
2021/10/16 06:04:18;;;;;;;6.60;2.60;;;8.30;99.90;;;;;;5076173;28;20521;-78
2021/10/16 06:06:43;;;;;;;10.10;3.08;;;8.10;99.90;;;;;;5076418;28;20615;-87
2021/10/16 06:09:09;;;;;;;15.10;3.53;;;8.30;99.90;;;;;;5075121;28;20185;-80
2021/10/16 06:11:34;;;;;;;9.32;3.45;;;8.40;99.90;;;;;;5075913;28;20171;-84
2021/10/16 06:14:00;;;;;;;6.43;3.60;;;8.20;99.90;;;;;;5076376;28;20216;-85
2021/10/16 06:16:26;;;;;;;10.10;3.20;;;8.20;99.90;;;;;;5076435;28;20175;-83
2021/10/16 06:18:51;;;;;;;8.25;3.42;;;8.30;99.90;;;;;;5075844;28;20252;-80
2021/10/16 06:21:17;;;;;;;11.60;3.45;;;8.20;99.90;;;;;;5075623;28;20166;-78
2021/10/16 06:23:43;;;;;;;8.18;3.60;;;8.20;99.90;;;;;;5076253;28;20257;-78
2021/10/16 06:26:08;;;;;;;13.38;3.65;;;8.30;99.90;;;;;;5075650;28;20520;-78
2021/10/16 06:28:34;;;;;;;10.20;3.30;;;8.50;99.90;;;;;;5075643;28;20186;-81
2021/10/16 06:31:00;;;;;;;8.50;3.22;;;8.40;99.90;;;;;;5075384;28;20209;-78
2021/10/16 06:33:26;;;;;;;8.20;4.05;;;8.50;99.90;;;;;;5075302;28;20706;-77
2021/10/16 06:35:52;;;;;;;11.07;3.45;;;8.80;99.90;;;;;;5075329;28;20171;-77
2021/10/16 06:38:19;;;;;;;12.05;2.97;;;8.80;99.90;;;;;;5075149;28;20182;-78
2021/10/16 06:40:44;;;;;;;12.45;3.83;;;8.70;99.90;;;;;;5075746;28;20186;-81
2021/10/16 06:43:10;;;;;;;4.47;3.08;;;8.90;99.90;;;;;;5075394;28;20578;-77
2021/10/16 06:45:36;;;;;;;7.07;3.70;;;9.10;99.90;;;;;;5074922;28;20174;-77
2021/10/16 06:48:01;;;;;;;12.23;4.00;;;9.00;99.90;;;;;;5074873;28;20178;-77
2021/10/16 06:50:27;;;;;;;8.48;3.25;;;9.00;99.90;;;;;;5075057;28;20224;-77
2021/10/16 06:52:53;;;;;;;4.78;2.92;;;9.10;99.90;;;;;;5074422;28;20262;-85
2021/10/16 06:55:18;;;;;;;10.25;3.35;;;9.30;99.90;;;;;;5075447;28;20162;-81
2021/10/16 06:57:44;;;;;;;19.75;5.15;;;9.40;99.90;;;;;;5075338;28;20182;-82
2021/10/16 07:00:10;;;;;;;8.73;2.70;;;9.50;99.90;;;;;;5074407;28;20175;-82
2021/10/16 07:02:36;;;;;;;7.68;3.03;;;9.50;99.90;;;;;;5075221;28;20739;-87
2021/10/16 07:05:02;;;;;;;11.52;3.28;;;9.60;99.90;;;;;;5074401;28;20209;-86
2021/10/16 07:07:27;;;;;;;16.35;3.90;;;9.50;99.90;;;;;;5074949;28;20182;-76
2021/10/16 07:09:53;;;;;;;15.48;3.95;;;9.40;99.90;;;;;;5074135;28;20718;-77
2021/10/16 07:12:19;;;;;;;19.02;3.72;;;9.40;99.90;;;;;;5073074;28;20279;-77
2021/10/16 07:14:45;;;;;;;11.13;4.18;;;9.50;99.90;;;;;;5074462;28;20194;-77
2021/10/16 07:17:10;;;;;;;6.63;3.38;;;9.60;99.90;;;;;;5072985;28;20647;-78
2021/10/16 07:19:36;;;;;;;26.90;4.50;;;9.90;99.90;;;;;;5074689;28;20201;-77
2021/10/16 07:22:03;;;;;;;16.33;4.82;;;10.10;99.90;;;;;;5074129;28;20213;-77
2021/10/16 07:24:29;;;;;;;13.13;4.13;;;9.90;99.90;;;;;;5074284;28;20212;-77
2021/10/16 07:26:55;;;;;;;17.25;4.35;;;10.00;99.90;;;;;;5074602;28;20558;-77
2021/10/16 07:29:22;;;;;;;11.52;4.88;;;10.10;99.90;;;;;;5073207;28;20174;-77
2021/10/16 07:31:52;;;;;;;9.50;5.10;;;10.30;99.90;;;;;;5074567;28;20197;-78
2021/10/16 07:34:18;;;;;;;12.93;5.57;;;10.40;99.90;;;;;;5074125;28;20210;-78
2021/10/16 07:36:45;;;;;;;12.82;4.65;;;10.40;99.90;;;;;;5074289;28;20634;-77
2021/10/16 07:39:11;;;;;;;18.50;5.70;;;10.50;99.90;;;;;;5074461;28;20200;-77
2021/10/16 07:41:37;;;;;;;12.57;4.20;;;10.50;99.90;;;;;;5074477;28;20240;-77
2021/10/16 07:44:05;;;;;;;14.73;4.75;;;10.40;99.90;;;;;;5074493;28;20166;-77
2021/10/16 07:46:31;;;;;;;14.68;4.35;;;10.50;99.90;;;;;;5074189;28;20178;-77
2021/10/16 07:48:57;;;;;;;9.15;4.13;;;10.40;99.90;;;;;;5072492;28;20190;-77
2021/10/16 07:51:22;;;;;;;14.65;4.85;;;10.40;99.90;;;;;;5073941;28;20194;-86
2021/10/16 07:53:48;;;;;;;9.23;5.05;;;10.40;99.90;;;;;;5076504;28;20166;-82
2021/10/16 07:56:14;;;;;;;15.18;6.68;;;10.50;99.90;;;;;;5075568;28;20205;-85
2021/10/16 07:58:41;;;;;;;10.27;4.82;;;10.70;99.90;;;;;;5072600;28;20186;-86
2021/10/16 08:01:07;;;;;;;15.15;5.60;;;10.90;99.90;;;;;;5074017;28;20159;-87
2021/10/16 08:03:33;;;;;;;15.93;5.07;;;10.90;99.90;;;;;;5074487;28;20167;-86
2021/10/16 08:05:59;;;;;;;20.63;5.35;;;10.90;99.90;;;;;;5073794;28;20503;-83
2021/10/16 08:08:25;;;;;;;20.85;7.95;;;11.00;99.90;;;;;;5073492;28;20182;-77
2021/10/16 08:10:50;;;;;;;13.85;7.68;;;11.10;99.90;;;;;;5073315;28;20564;-78
2021/10/16 08:13:16;;;;;;;12.93;6.63;;;11.20;99.90;;;;;;5072865;28;20205;-77
2021/10/16 08:15:42;;;;;;;17.25;6.95;;;11.30;99.90;;;;;;5073142;28;20194;-78
2021/10/16 08:18:07;;;;;;;29.77;7.38;;;11.40;99.90;;;;;;5073167;28;20646;-78
2021/10/16 08:20:33;;;;;;;22.92;7.15;;;11.50;99.90;;;;;;5072068;28;20174;-78
2021/10/16 08:22:59;;;;;;;16.38;6.95;;;11.50;99.90;;;;;;5073301;28;20154;-77
2021/10/16 08:25:24;;;;;;;22.05;6.88;;;11.60;99.90;;;;;;5073174;28;20522;-77
2021/10/16 08:27:50;;;;;;;19.15;6.85;;;11.70;99.90;;;;;;5071690;28;20199;-77
2021/10/16 08:30:17;;;;;;;22.58;8.02;;;11.80;99.90;;;;;;5072973;28;20217;-79
2021/10/16 08:32:43;;;;;;;27.90;9.02;;;11.90;99.90;;;;;;5072555;28;20167;-78
2021/10/16 08:35:10;;;;;;;28.58;9.43;;;12.00;99.90;;;;;;5072866;28;20177;-78
2021/10/16 08:37:36;;;;;;;18.17;9.27;;;12.10;99.90;;;;;;5072723;28;20651;-79
2021/10/16 08:40:02;;;;;;;33.92;11.00;;;12.20;99.90;;;;;;5072116;28;20181;-85
2021/10/16 08:42:28;;;;;;;26.73;14.13;;;12.30;99.90;;;;;;5073077;28;20569;-77
2021/10/16 08:44:58;;;;;;;25.98;15.35;;;12.40;99.90;;;;;;5072845;28;20167;-78
2021/10/16 08:47:31;;;;;;;22.20;12.05;;;12.40;99.90;;;;;;5072254;28;20187;-77
2021/10/16 08:49:59;;;;;;;21.92;10.35;;;12.60;99.90;;;;;;5072534;28;20208;-77
2021/10/16 08:52:25;;;;;;;19.10;9.27;;;12.50;99.90;;;;;;5071649;28;20645;-77
2021/10/16 08:54:51;;;;;;;14.30;8.32;;;12.60;99.90;;;;;;5072429;28;20184;-77
2021/10/16 08:57:17;;;;;;;20.00;8.00;;;12.60;99.90;;;;;;5072434;28;20558;-77
2021/10/16 08:59:42;;;;;;;20.85;8.88;;;12.60;99.90;;;;;;5072400;28;20194;-77
2021/10/16 09:02:09;;;;;;;29.77;10.35;;;12.80;99.90;;;;;;5072191;28;20210;-76
2021/10/16 09:04:35;;;;;;;17.83;8.57;;;13.00;99.90;;;;;;5072691;28;20564;-78
2021/10/16 09:07:20;;;;;;;14.57;6.45;;;13.10;99.90;;;;;;5072070;28;20166;-79
2021/10/16 09:09:48;;;;;;;15.27;6.65;;;13.20;99.90;;;;;;5072246;28;20202;-77
2021/10/16 09:12:14;;;;;;;12.90;4.90;;;13.20;99.90;;;;;;5072356;28;20167;-78
2021/10/16 09:14:50;;;;;;;13.48;4.80;;;13.40;99.90;;;;;;5072009;28;20172;-78
2021/10/16 09:17:17;;;;;;;13.20;4.57;;;13.50;99.90;;;;;;5071603;28;20282;-77
2021/10/16 09:19:44;;;;;;;8.13;4.10;;;13.60;99.90;;;;;;5071985;28;20176;-78
2021/10/16 09:22:11;;;;;;;6.95;3.40;;;13.70;99.90;;;;;;5071035;28;20630;-77
2021/10/16 09:24:42;;;;;;;12.27;5.10;;;13.70;99.90;;;;;;5072029;28;20196;-78
2021/10/16 09:27:16;;;;;;;10.10;3.47;;;13.70;99.90;;;;;;5071895;28;20209;-78
2021/10/16 09:29:47;;;;;;;10.85;3.47;;;13.70;99.90;;;;;;5076793;28;20210;-76
2021/10/16 09:32:17;;;;;;;12.18;3.70;;;13.70;99.90;;;;;;5079129;28;20163;-76
2021/10/16 09:34:45;;;;;;;5.63;3.17;;;13.80;99.90;;;;;;5079103;28;20170;-76
2021/10/16 09:37:13;;;;;;;19.73;4.38;;;14.00;99.90;;;;;;5078663;28;20182;-76
2021/10/16 09:39:58;;;;;;;18.45;2.97;;;14.00;99.90;;;;;;5078683;28;20256;-76
2021/10/16 09:42:30;;;;;;;6.95;2.38;;;14.30;99.90;;;;;;5077671;28;20173;-76
2021/10/16 09:44:57;;;;;;;12.77;1.90;;;14.30;99.90;;;;;;5078746;28;20171;-77
2021/10/16 09:47:23;;;;;;;4.85;1.45;;;14.20;99.90;;;;;;5078450;28;20186;-76
2021/10/16 09:50:03;;;;;;;6.07;1.60;;;14.20;99.90;;;;;;5076829;28;20612;-77
2021/10/16 09:52:40;;;;;;;11.68;1.70;;;14.40;99.90;;;;;;5078834;28;20174;-77
2021/10/16 09:55:08;;;;;;;10.75;1.85;;;14.40;99.90;;;;;;5078878;28;20166;-76
2021/10/16 09:57:34;;;;;;;10.68;1.95;;;14.30;99.90;;;;;;5078710;28;20269;-76
2021/10/16 10:00:01;;;;;;;17.38;1.95;;;14.40;99.90;;;;;;5078797;28;20253;-76
2021/10/16 10:02:30;;;;;;;4.88;1.48;;;14.70;99.90;;;;;;5078581;28;20220;-76
2021/10/16 10:04:57;;;;;;;6.65;1.52;;;14.50;99.90;;;;;;5078530;28;20563;-76
2021/10/16 10:07:24;;;;;;;3.60;1.10;;;14.60;99.90;;;;;;5078644;28;20189;-76
2021/10/16 10:09:51;;;;;;;3.80;1.13;;;14.60;99.90;;;;;;5078498;28;20226;-77
2021/10/16 10:12:18;;;;;;;5.72;1.40;;;14.60;99.90;;;;;;5078383;28;20170;-76
2021/10/16 10:14:46;;;;;;;3.15;1.77;;;14.50;99.90;;;;;;5078412;28;20162;-76
2021/10/16 10:17:16;;;;;;;5.03;1.58;;;14.60;99.90;;;;;;5078663;28;20226;-77
2021/10/16 10:19:46;;;;;;;7.70;1.92;;;14.80;99.90;;;;;;5078945;28;20163;-77
2021/10/16 10:22:14;;;;;;;6.90;1.45;;;14.70;99.90;;;;;;5078864;28;20189;-77
2021/10/16 10:24:53;;;;;;;3.10;1.10;;;14.60;99.90;;;;;;5078745;28;20168;-76
2021/10/16 10:27:22;;;;;;;5.55;1.52;;;14.70;99.90;;;;;;5078632;28;20190;-76
2021/10/16 10:29:50;;;;;;;9.75;2.28;;;14.90;99.90;;;;;;5077998;28;20620;-76
2021/10/16 10:32:15;;;;;;;7.40;1.75;;;15.20;99.90;;;;;;5078117;28;20170;-76
2021/10/16 10:35:11;;;;;;;8.60;1.67;;;15.40;99.90;;;;;;5078343;28;20170;-77
2021/10/16 10:37:41;;;;;;;8.95;1.77;;;15.60;99.90;;;;;;5078064;28;20723;-78
2021/10/16 10:40:15;;;;;;;4.13;1.30;;;15.70;99.90;;;;;;5076356;28;20189;-77
2021/10/16 10:43:11;;;;;;;1.42;1.13;;;15.50;99.90;;;;;;5075218;28;20169;-77
2021/10/16 10:45:38;;;;;;;6.72;1.73;;;15.50;99.90;;;;;;5062284;28;20190;-77
2021/10/16 10:48:08;;;;;;;4.38;1.55;;;15.60;99.90;;;;;;5074885;28;20213;-77
2021/10/16 10:50:54;;;;;;;3.35;1.70;;;15.50;99.90;;;;;;5073298;28;20631;-77
2021/10/16 10:53:24;;;;;;;5.47;2.28;;;15.70;99.90;;;;;;5073382;28;20158;-77
2021/10/16 10:56:21;;;;;;;6.82;1.45;;;15.80;99.90;;;;;;5074829;28;20257;-76
2021/10/16 10:58:58;;;;;;;3.70;1.80;;;15.80;99.90;;;;;;5073983;28;20281;-76
2021/10/16 11:01:42;;;;;;;6.20;1.63;;;15.70;99.90;;;;;;5074784;28;20170;-76
2021/10/16 11:04:08;;;;;;;7.57;1.55;;;15.80;99.90;;;;;;5074535;28;20166;-77
2021/10/16 11:06:34;;;;;;;3.67;1.88;;;15.70;99.90;;;;;;5074577;28;20177;-78
2021/10/16 11:09:17;;;;;;;9.38;2.05;;;15.60;99.90;;;;;;5074028;28;20191;-76
2021/10/16 11:11:49;;;;;;;3.42;1.25;;;15.50;99.90;;;;;;5074438;28;20213;-76
2021/10/16 11:14:16;;;;;;;8.68;1.70;;;15.60;99.90;;;;;;5073053;28;20198;-76
2021/10/16 11:16:59;;;;;;;5.88;1.63;;;15.60;99.90;;;;;;5074121;28;20178;-76
2021/10/16 11:19:25;;;;;;;6.72;2.10;;;15.60;99.90;;;;;;5072844;28;20182;-79
2021/10/16 11:21:58;;;;;;;8.50;1.58;;;15.60;99.90;;;;;;5074266;28;20166;-76
2021/10/16 11:24:26;;;;;;;4.55;1.85;;;15.40;99.90;;;;;;5074537;28;20174;-76
2021/10/16 11:26:59;;;;;;;3.15;1.48;;;15.40;99.90;;;;;;5073789;28;20493;-85
2021/10/16 11:29:33;;;;;;;5.57;1.80;;;15.30;99.90;;;;;;5074027;28;20519;-76
2021/10/16 11:32:21;;;;;;;5.35;1.67;;;15.00;99.90;;;;;;5074058;28;20170;-77
2021/10/16 11:35:07;;;;;;;7.15;1.58;;;15.20;99.90;;;;;;5074375;28;20162;-77
2021/10/16 11:37:33;;;;;;;5.32;1.50;;;15.40;99.90;;;;;;5073873;28;20202;-77
2021/10/16 11:40:00;;;;;;;4.53;1.88;;;15.20;99.90;;;;;;5073848;28;20169;-77
2021/10/16 11:42:25;;;;;;;11.98;1.98;;;15.00;99.90;;;;;;5073921;28;20170;-77
2021/10/16 11:44:51;;;;;;;6.07;1.80;;;14.80;99.90;;;;;;5073699;28;20162;-77
2021/10/16 11:47:19;;;;;;;8.00;1.95;;;14.80;99.90;;;;;;5073313;28;20187;-77
2021/10/16 11:49:44;;;;;;;5.50;1.50;;;14.90;99.90;;;;;;5073516;28;20186;-77
2021/10/16 11:52:23;;;;;;;8.65;1.65;;;15.00;99.90;;;;;;5073108;28;20176;-77
2021/10/16 11:55:10;;;;;;;7.40;1.20;;;15.30;99.90;;;;;;5072702;28;20544;-83
2021/10/16 11:57:36;;;;;;;4.53;1.58;;;15.60;99.90;;;;;;5074082;28;20536;-87
2021/10/16 12:00:25;;;;;;;6.45;1.45;;;15.50;99.90;;;;;;5073862;28;20175;-84
2021/10/16 12:02:54;;;;;;;3.63;1.63;;;15.30;99.90;;;;;;5074701;28;20178;-84
2021/10/16 12:05:22;;;;;;;6.30;2.63;;;15.60;99.90;;;;;;5074932;28;20166;-87
2021/10/16 12:07:48;;;;;;;3.72;1.95;;;15.50;99.90;;;;;;5074042;28;20578;-77
2021/10/16 12:10:19;;;;;;;5.90;1.55;;;15.70;99.90;;;;;;5074311;28;20202;-85
2021/10/16 12:13:09;;;;;;;9.75;1.60;;;15.60;99.90;;;;;;5074896;28;20167;-78
2021/10/16 12:15:42;;;;;;;8.80;1.88;;;15.60;99.90;;;;;;5074091;28;20184;-83
2021/10/16 12:18:20;;;;;;;11.68;1.70;;;15.80;99.90;;;;;;5074324;28;20174;-84
2021/10/16 12:21:04;;;;;;;6.88;1.80;;;15.90;99.90;;;;;;5074380;28;20167;-80
2021/10/16 12:23:57;;;;;;;5.13;1.50;;;15.70;99.90;;;;;;5074320;28;20580;-86
2021/10/16 12:26:24;;;;;;;3.30;1.52;;;15.40;99.90;;;;;;5072001;28;20179;-87
2021/10/16 12:28:52;;;;;;;9.30;1.33;;;15.50;99.90;;;;;;5074062;28;20210;-76
2021/10/16 12:31:19;;;;;;;6.55;1.52;;;15.40;99.90;;;;;;5073550;28;20216;-77
2021/10/16 12:34:08;;;;;;;5.82;1.92;;;15.20;99.90;;;;;;5073359;28;20158;-77
2021/10/16 12:36:35;;;;;;;4.88;1.35;;;15.60;99.90;;;;;;5073920;28;20505;-79
2021/10/16 12:39:04;;;;;;;2.08;1.50;;;15.60;99.90;;;;;;5072781;28;20178;-78
2021/10/16 12:41:41;;;;;;;9.85;1.67;;;15.60;99.90;;;;;;5073598;28;20590;-81
2021/10/16 12:44:15;;;;;;;5.72;1.65;;;15.70;99.90;;;;;;5073388;28;20283;-79
2021/10/16 12:46:42;;;;;;;9.05;1.92;;;15.50;99.90;;;;;;5071356;28;20166;-78
2021/10/16 12:49:10;;;;;;;6.25;2.15;;;15.50;99.90;;;;;;5072808;28;20166;-77
2021/10/16 12:51:37;;;;;;;3.50;1.40;;;15.50;99.90;;;;;;5073142;28;20198;-79